createdAt,value
2022-07-25T00:00:10.614Z,16.3
2022-07-25T00:03:20.605Z,16.3
2022-07-25T00:06:17.606Z,16.3
2022-07-25T00:09:09.472Z,16.3
2022-07-25T00:12:15.502Z,16.2
2022-07-25T00:15:09.372Z,16.2
2022-07-25T00:18:09.432Z,16.2
2022-07-25T00:21:09.433Z,16.2
2022-07-25T00:24:11.019Z,16.1
2022-07-25T00:27:09.651Z,16.1
2022-07-25T00:30:09.509Z,16.2
2022-07-25T00:33:09.453Z,16.2
2022-07-25T00:36:09.617Z,16.1
2022-07-25T00:39:09.297Z,16.1
2022-07-25T00:42:10.198Z,16.2
2022-07-25T00:45:09.457Z,16.4
2022-07-25T00:48:09.468Z,16.6
2022-07-25T00:51:10.487Z,16.8
2022-07-25T00:54:11.185Z,16.8
2022-07-25T00:57:10.903Z,16.7
2022-07-25T01:00:09.582Z,16.5
2022-07-25T01:03:10.075Z,16.3
2022-07-25T01:06:09.429Z,16.1
2022-07-25T01:09:09.383Z,16.1
2022-07-25T01:12:10.156Z,16.1
2022-07-25T01:15:09.453Z,16
2022-07-25T01:18:09.463Z,15.9
2022-07-25T01:21:09.546Z,15.8
2022-07-25T01:24:10.946Z,15.6
2022-07-25T01:27:09.544Z,15.5
2022-07-25T01:30:09.609Z,15.4
2022-07-25T01:33:15.561Z,15.4
2022-07-25T01:36:09.631Z,15.4
2022-07-25T01:39:09.383Z,15.4
2022-07-25T01:42:09.434Z,15.4
2022-07-25T01:45:09.392Z,15.3
2022-07-25T01:48:09.582Z,15.3
2022-07-25T01:51:13.142Z,15.3
2022-07-25T01:54:17.245Z,15.3
2022-07-25T01:57:10.343Z,15.3
2022-07-25T02:00:10.951Z,15.2
2022-07-25T02:03:09.351Z,15.1
2022-07-25T02:06:09.574Z,15.1
2022-07-25T02:09:09.350Z,15.1
2022-07-25T02:12:09.560Z,15.1
2022-07-25T02:15:09.640Z,15.1
2022-07-25T02:18:09.342Z,15.1
2022-07-25T02:21:18.347Z,15
2022-07-25T02:24:11.033Z,15
2022-07-25T02:27:09.360Z,14.9
2022-07-25T02:30:09.405Z,14.9
2022-07-25T02:33:09.339Z,14.8
2022-07-25T02:36:09.353Z,14.7
2022-07-25T02:39:09.400Z,14.7
2022-07-25T02:42:09.498Z,14.6
2022-07-25T02:45:09.439Z,14.6
2022-07-25T02:48:09.509Z,14.6
2022-07-25T02:51:09.540Z,14.6
2022-07-25T02:54:09.685Z,14.5
2022-07-25T02:57:10.721Z,14.4
2022-07-25T03:00:09.496Z,14.4
2022-07-25T03:03:10.915Z,14.5
2022-07-25T03:06:09.429Z,14.4
2022-07-25T03:09:09.353Z,14.4
2022-07-25T03:12:09.504Z,14.4
2022-07-25T03:15:09.389Z,14.5
2022-07-25T03:18:09.364Z,14.7
2022-07-25T03:21:09.312Z,14.7
2022-07-25T03:24:10.696Z,14.7
2022-07-25T03:27:09.499Z,14.7
2022-07-25T03:30:09.513Z,14.9
2022-07-25T03:33:09.443Z,14.9
2022-07-25T03:36:09.430Z,14.9
2022-07-25T03:39:14.027Z,15
2022-07-25T03:42:09.521Z,15.1
2022-07-25T03:45:09.696Z,15.1
2022-07-25T03:48:09.450Z,15.2
2022-07-25T03:51:15.973Z,15.4
2022-07-25T03:54:11.221Z,15.6
2022-07-25T03:57:09.496Z,15.8
2022-07-25T04:00:09.853Z,15.9
2022-07-25T04:03:09.502Z,16.1
2022-07-25T04:06:09.417Z,16.3
2022-07-25T04:09:09.517Z,16.4
2022-07-25T04:12:09.564Z,16.4
2022-07-25T04:15:09.408Z,16.5
2022-07-25T04:18:22.795Z,16.5
2022-07-25T04:21:11.440Z,16.6
2022-07-25T04:24:11.003Z,16.7
2022-07-25T04:27:09.581Z,16.8
2022-07-25T04:30:09.388Z,16.8
2022-07-25T04:33:09.422Z,16.9
2022-07-25T04:36:09.786Z,16.9
2022-07-25T04:39:09.446Z,16.9
2022-07-25T04:42:09.392Z,17
2022-07-25T04:45:09.642Z,17.2
2022-07-25T04:48:09.452Z,17.3
2022-07-25T04:51:10.334Z,18.1
2022-07-25T04:54:10.668Z,19.2
2022-07-25T04:57:09.378Z,20.3
2022-07-25T05:00:09.538Z,21.1
2022-07-25T05:03:09.374Z,21.6
2022-07-25T05:06:09.514Z,21.9
2022-07-25T05:09:09.407Z,22.4
2022-07-25T05:12:10.243Z,22.8
2022-07-25T05:15:09.369Z,23.2
2022-07-25T05:18:09.458Z,23.5
2022-07-25T05:21:09.344Z,23.7
2022-07-25T05:24:10.731Z,23.9
2022-07-25T05:27:09.562Z,24.1
2022-07-25T05:30:09.828Z,24.3
2022-07-25T05:33:09.427Z,24.4
2022-07-25T05:36:09.569Z,24.7
2022-07-25T05:39:09.443Z,25
2022-07-25T05:42:09.402Z,25.5
2022-07-25T05:45:09.455Z,25.8
2022-07-25T05:48:09.446Z,26.1
2022-07-25T05:51:09.377Z,25.9
2022-07-25T05:54:10.694Z,26.2
2022-07-25T05:57:09.484Z,26.6
2022-07-25T06:00:09.607Z,27.1
2022-07-25T06:03:10.461Z,27.6
2022-07-25T06:06:09.813Z,27.4
2022-07-25T06:09:14.654Z,27.4
2022-07-25T06:12:13.548Z,27.4
2022-07-25T06:15:19.769Z,27.7
2022-07-25T06:18:09.461Z,28
2022-07-25T06:21:10.572Z,28
2022-07-25T06:24:10.656Z,28
2022-07-25T06:27:09.477Z,28.3
2022-07-25T06:30:21.875Z,28.6
2022-07-25T06:33:09.409Z,29.1
2022-07-25T06:36:09.453Z,29.6
2022-07-25T06:39:09.399Z,29.9
2022-07-25T06:42:09.640Z,30.3
2022-07-25T06:45:09.438Z,30.4
2022-07-25T06:48:09.420Z,31.1
2022-07-25T06:51:09.461Z,31.5
2022-07-25T06:54:11.023Z,31.7
2022-07-25T06:57:09.422Z,31.8
2022-07-25T07:00:09.665Z,31.6
2022-07-25T07:03:09.791Z,32.1
2022-07-25T07:06:09.464Z,32
2022-07-25T07:09:09.435Z,32.7
2022-07-25T07:12:09.631Z,32.9
2022-07-25T07:15:09.571Z,32.4
2022-07-25T07:18:09.478Z,32.4
2022-07-25T07:21:10.468Z,32.9
2022-07-25T07:24:27.736Z,33.4
2022-07-25T07:27:09.413Z,33.7
2022-07-25T07:30:11.541Z,33.9
2022-07-25T07:33:09.515Z,33.6
2022-07-25T07:36:09.952Z,33.4
2022-07-25T07:39:10.631Z,33.7
2022-07-25T07:42:09.508Z,33.8
2022-07-25T07:45:09.491Z,33.7
2022-07-25T07:48:09.560Z,33.9
2022-07-25T07:51:09.512Z,34.4
2022-07-25T07:54:09.533Z,34.8
2022-07-25T07:57:09.416Z,35.3
2022-07-25T08:00:12.413Z,34.9
2022-07-25T08:03:09.984Z,34.9
2022-07-25T08:06:09.497Z,35.6
2022-07-25T08:09:11.266Z,36.6
2022-07-25T08:12:09.507Z,37.5
2022-07-25T08:15:09.394Z,37.9
2022-07-25T08:18:22.050Z,38.2
2022-07-25T08:21:09.493Z,38.4
2022-07-25T08:24:11.939Z,38.7
2022-07-25T08:27:09.424Z,39.2
2022-07-25T08:30:09.515Z,38.9
2022-07-25T08:33:09.347Z,38.4
2022-07-25T08:36:09.382Z,38.4
2022-07-25T08:39:09.372Z,37.7
2022-07-25T08:42:15.581Z,37.4
2022-07-25T08:45:09.465Z,37.8
2022-07-25T08:48:09.467Z,38.1
2022-07-25T08:51:09.401Z,38.4
2022-07-25T08:54:12.168Z,38.9
2022-07-25T08:57:09.380Z,39.6
2022-07-25T09:00:09.727Z,39.4
2022-07-25T09:03:10.011Z,38.6
2022-07-25T09:06:09.434Z,38.6
2022-07-25T09:09:10.098Z,38.5
2022-07-25T09:12:09.406Z,38.7
2022-07-25T09:15:15.551Z,39.2
2022-07-25T09:18:18.030Z,38.9
2022-07-25T09:21:09.394Z,37.6
2022-07-25T09:24:12.710Z,36.8
2022-07-25T09:27:09.550Z,37.1
2022-07-25T09:30:09.464Z,38.1
2022-07-25T09:33:09.459Z,38.9
2022-07-25T09:36:09.530Z,39.6
2022-07-25T09:39:09.356Z,39.6
2022-07-25T09:42:09.426Z,39.7
2022-07-25T09:45:09.697Z,39.1
2022-07-25T09:48:09.629Z,38.7
2022-07-25T09:51:09.416Z,38.4
2022-07-25T09:54:10.574Z,37.6
2022-07-25T09:57:09.383Z,36.7
2022-07-25T10:00:09.514Z,36.8
2022-07-25T10:03:10.036Z,37.1
2022-07-25T10:06:09.493Z,37.9
2022-07-25T10:09:09.382Z,38.4
2022-07-25T10:12:09.529Z,38.6
2022-07-25T10:15:09.426Z,38.4
2022-07-25T10:18:09.509Z,38.4
2022-07-25T10:21:31.764Z,38.6
2022-07-25T10:24:11.319Z,39.2
2022-07-25T10:27:09.413Z,38.8
2022-07-25T10:30:09.512Z,37.9
2022-07-25T10:33:09.553Z,37.5
2022-07-25T10:36:09.422Z,37.8
2022-07-25T10:39:09.409Z,37.4
2022-07-25T10:42:09.424Z,36.6
2022-07-25T10:45:09.462Z,36.4
2022-07-25T10:48:09.406Z,36.2
2022-07-25T10:51:09.488Z,36.2
2022-07-25T10:54:09.425Z,36
2022-07-25T10:57:09.410Z,36.2
2022-07-25T11:00:09.616Z,35.9
2022-07-25T11:03:12.368Z,35.6
2022-07-25T11:06:09.489Z,35.4
2022-07-25T11:09:12.880Z,35.3
2022-07-25T11:12:09.379Z,35.7
2022-07-25T11:15:09.814Z,35.7
2022-07-25T11:18:09.605Z,35.6
2022-07-25T11:21:15.435Z,36.1
2022-07-25T11:24:09.522Z,36.6
2022-07-25T11:27:16.949Z,36.9
2022-07-25T11:30:09.632Z,36.6
2022-07-25T11:33:09.801Z,36.2
2022-07-25T11:36:11.125Z,35.7
2022-07-25T11:39:13.163Z,35.3
2022-07-25T11:42:09.378Z,35.1
2022-07-25T11:45:09.556Z,34.8
2022-07-25T11:48:09.388Z,34.5
2022-07-25T11:51:09.545Z,34.3
2022-07-25T11:54:09.425Z,34.4
2022-07-25T11:57:10.167Z,34.6
2022-07-25T12:00:09.709Z,34.9
2022-07-25T12:03:13.020Z,35.3
2022-07-25T12:06:09.339Z,36
2022-07-25T12:09:12.915Z,35.9
2022-07-25T12:12:09.557Z,35.5
2022-07-25T12:15:09.471Z,35.1
2022-07-25T12:18:10.329Z,34.6
2022-07-25T12:21:09.362Z,34.1
2022-07-25T12:24:09.415Z,33.7
2022-07-25T12:27:09.402Z,33.7
2022-07-25T12:30:09.719Z,33.7
2022-07-25T12:33:09.487Z,33.6
2022-07-25T12:36:16.960Z,33.7
2022-07-25T12:39:10.511Z,34.1
2022-07-25T12:42:09.486Z,34.5
2022-07-25T12:45:09.499Z,35
2022-07-25T12:48:09.674Z,35.2
2022-07-25T12:51:09.601Z,34.7
2022-07-25T12:54:10.505Z,34.2
2022-07-25T12:57:09.487Z,34.2
2022-07-25T13:00:09.799Z,34.6
2022-07-25T13:03:09.799Z,35.4
2022-07-25T13:06:09.508Z,35.7
2022-07-25T13:09:10.549Z,35.4
2022-07-25T13:12:10.399Z,35.5
2022-07-25T13:15:09.449Z,35.2
2022-07-25T13:18:09.615Z,34.9
2022-07-25T13:21:09.472Z,34.6
2022-07-25T13:24:09.445Z,34.7
2022-07-25T13:27:09.408Z,34.6
2022-07-25T13:30:10.178Z,34.3
2022-07-25T13:33:09.542Z,34.1
2022-07-25T13:36:09.502Z,33.8
2022-07-25T13:39:10.479Z,33.4
2022-07-25T13:42:09.656Z,33.1
2022-07-25T13:45:09.507Z,32.9
2022-07-25T13:48:38.695Z,32.6
2022-07-25T13:51:09.457Z,32.4
2022-07-25T13:54:09.516Z,32.1
2022-07-25T13:57:09.454Z,31.9
2022-07-25T14:00:09.663Z,31.8
2022-07-25T14:03:09.467Z,31.6
2022-07-25T14:06:09.461Z,31.4
2022-07-25T14:09:10.831Z,31.2
2022-07-25T14:12:09.494Z,31.1
2022-07-25T14:15:09.419Z,30.9
2022-07-25T14:18:09.463Z,30.1
2022-07-25T14:21:09.481Z,29.3
2022-07-25T14:24:09.547Z,28.6
2022-07-25T14:27:09.601Z,28.6
2022-07-25T14:30:09.540Z,28.8
2022-07-25T14:33:09.505Z,29.2
2022-07-25T14:36:09.967Z,29.4
2022-07-25T14:39:10.807Z,29.6
2022-07-25T14:42:09.499Z,29.8
2022-07-25T14:45:10.172Z,29.9
2022-07-25T14:48:09.533Z,30.1
2022-07-25T14:51:09.319Z,30.2
2022-07-25T14:54:09.443Z,30.5
2022-07-25T14:57:09.519Z,31.1
2022-07-25T15:00:09.592Z,31.9
2022-07-25T15:03:09.389Z,32.6
2022-07-25T15:06:09.435Z,33
2022-07-25T15:09:10.799Z,33.4
2022-07-25T15:12:13.412Z,33.4
2022-07-25T15:15:09.522Z,33.1
2022-07-25T15:18:15.547Z,33
2022-07-25T15:21:09.430Z,33.2
2022-07-25T15:24:09.430Z,33.1
2022-07-25T15:27:09.386Z,32.7
2022-07-25T15:30:09.583Z,32.8
2022-07-25T15:33:09.428Z,33.1
2022-07-25T15:36:09.559Z,32.9
2022-07-25T15:42:09.659Z,33.2
2022-07-25T15:45:41.729Z,32.9
2022-07-25T15:48:09.475Z,32.9
2022-07-25T15:51:09.383Z,32.8
2022-07-25T15:54:09.427Z,32.5
2022-07-25T15:57:09.679Z,32.3
2022-07-25T16:00:09.413Z,32.1
2022-07-25T16:03:09.298Z,32
2022-07-25T16:06:09.382Z,32.2
2022-07-25T16:09:10.662Z,32.4
2022-07-25T16:12:09.497Z,32.2
2022-07-25T16:15:09.516Z,31.9
2022-07-25T16:18:12.013Z,31.4
2022-07-25T16:21:09.670Z,31.1
2022-07-25T16:24:09.431Z,30.9
2022-07-25T16:27:09.891Z,30.7
2022-07-25T16:30:10.199Z,30.6
2022-07-25T16:33:09.479Z,30.8
2022-07-25T16:36:09.464Z,30.8
2022-07-25T16:39:10.908Z,30.8
2022-07-25T16:42:09.500Z,30.6
2022-07-25T16:45:09.461Z,30.6
2022-07-25T16:48:09.441Z,30.4
2022-07-25T16:51:09.363Z,30.1
2022-07-25T16:54:09.496Z,29.5
2022-07-25T16:57:09.385Z,29.1
2022-07-25T17:00:09.462Z,28.7
2022-07-25T17:03:09.380Z,28.4
2022-07-25T17:06:09.499Z,28.2
2022-07-25T17:09:10.849Z,28
2022-07-25T17:12:10.041Z,27.9
2022-07-25T17:15:09.377Z,27.8
2022-07-25T17:18:09.472Z,27.9
2022-07-25T17:21:09.428Z,27.9
2022-07-25T17:24:09.406Z,27.9
2022-07-25T17:27:09.374Z,27.8
2022-07-25T17:30:09.541Z,27.6
2022-07-25T17:33:09.350Z,27.5
2022-07-25T17:36:09.361Z,27.4
2022-07-25T17:39:10.699Z,27.2
2022-07-25T17:42:09.553Z,27
2022-07-25T18:00:10.939Z,25.9
2022-07-25T18:03:09.842Z,25.8
2022-07-25T18:06:09.233Z,25.5
2022-07-25T18:09:09.203Z,25.3
2022-07-25T18:12:09.218Z,25.1
2022-07-25T18:15:09.205Z,24.9
2022-07-25T18:18:09.202Z,24.9
2022-07-25T18:21:09.145Z,24.7
2022-07-25T18:24:10.523Z,24.6
2022-07-25T18:27:09.141Z,24.6
2022-07-25T18:30:09.199Z,24.5
2022-07-25T18:33:09.188Z,24.5
2022-07-25T18:36:16.315Z,24.3
2022-07-25T18:39:09.164Z,23.6
2022-07-25T18:42:09.514Z,22.4
2022-07-25T18:45:09.617Z,21.8
2022-07-25T18:48:09.205Z,21.3
2022-07-25T18:51:09.200Z,21.1
2022-07-25T18:54:10.479Z,20.8
2022-07-25T18:57:09.183Z,20.6
2022-07-25T19:00:12.419Z,20.3
2022-07-25T19:03:09.191Z,20.3
2022-07-25T19:06:12.599Z,20.1
2022-07-25T19:09:09.241Z,20.3
2022-07-25T19:12:10.147Z,20.2
2022-07-25T19:15:09.225Z,20.1
2022-07-25T19:18:09.392Z,20.1
2022-07-25T19:21:09.248Z,20.3
2022-07-25T19:24:10.996Z,20.3
2022-07-25T19:27:09.616Z,20.4
2022-07-25T19:30:12.730Z,20.3
2022-07-25T19:33:09.165Z,20.2
2022-07-25T19:36:09.317Z,20.3
2022-07-25T19:39:09.203Z,20.3
2022-07-25T19:42:09.238Z,20.2
2022-07-25T19:45:09.333Z,20.3
2022-07-25T19:48:09.281Z,20.2
2022-07-25T19:51:09.265Z,20.2
2022-07-25T19:54:10.920Z,20.1
2022-07-25T19:57:10.260Z,20.1
2022-07-25T20:00:09.263Z,20.1
2022-07-25T20:03:10.105Z,20
2022-07-25T20:06:16.867Z,20
2022-07-25T20:09:10.181Z,19.9
2022-07-25T20:12:09.422Z,19.8
2022-07-25T20:15:09.227Z,19.8
2022-07-25T20:18:09.264Z,19.8
2022-07-25T20:21:09.220Z,19.8
2022-07-25T20:24:09.271Z,19.8
2022-07-25T20:27:09.342Z,19.8
2022-07-25T20:30:10.098Z,19.8
2022-07-25T20:33:16.105Z,19.8
2022-07-25T20:36:09.214Z,19.9
2022-07-25T20:39:13.567Z,19.9
2022-07-25T20:42:09.245Z,19.9
2022-07-25T20:45:09.543Z,19.9
2022-07-25T20:48:09.286Z,19.9
2022-07-25T20:51:09.204Z,19.8
2022-07-25T20:54:09.440Z,19.7
2022-07-25T20:57:09.269Z,19.7
2022-07-25T21:00:09.355Z,19.7
2022-07-25T21:03:12.490Z,19.7
2022-07-25T21:06:09.262Z,19.6
2022-07-25T21:09:10.498Z,19.5
2022-07-25T21:12:09.195Z,19.4
2022-07-25T21:15:09.257Z,19.4
2022-07-25T21:18:11.392Z,19.4
2022-07-25T21:21:14.526Z,19.3
2022-07-25T21:24:10.018Z,19.2
2022-07-25T21:27:10.312Z,19.1
2022-07-25T21:30:09.241Z,19.1
2022-07-25T21:33:20.436Z,18.9
2022-07-25T21:36:09.751Z,18.9
2022-07-25T21:39:10.296Z,18.8
2022-07-25T21:42:10.596Z,18.7
2022-07-25T21:45:09.287Z,18.6
2022-07-25T21:48:12.176Z,18.6
2022-07-25T21:51:40.690Z,18.5
2022-07-25T21:54:09.189Z,18.4
2022-07-25T21:57:15.497Z,18.4
2022-07-25T22:00:09.743Z,18.4
2022-07-25T22:03:09.200Z,18.3
2022-07-25T22:06:09.225Z,18.3
2022-07-25T22:09:10.471Z,18.1
2022-07-25T22:12:09.201Z,18.1
2022-07-25T22:15:14.358Z,18
2022-07-25T22:18:09.211Z,17.9
2022-07-25T22:21:09.221Z,17.8
2022-07-25T22:24:09.172Z,17.7
2022-07-25T22:27:09.241Z,17.6
2022-07-25T22:30:11.323Z,17.5
2022-07-25T22:33:09.193Z,17.4
2022-07-25T22:36:09.228Z,17.3
2022-07-25T22:39:10.767Z,17.2
2022-07-25T22:42:09.248Z,17.2
2022-07-25T22:45:09.272Z,17.2
2022-07-25T22:48:09.199Z,17.1
2022-07-25T22:51:09.172Z,17
2022-07-25T22:54:09.226Z,16.9
2022-07-25T22:57:09.195Z,17
2022-07-25T23:00:09.302Z,16.9
2022-07-25T23:03:09.794Z,17
2022-07-25T23:06:09.233Z,17.1
2022-07-25T23:09:10.711Z,17.2
2022-07-25T23:12:09.245Z,17.2
2022-07-25T23:15:09.207Z,17.3
2022-07-25T23:18:10.596Z,17.3
2022-07-25T23:21:09.225Z,17.3
2022-07-25T23:24:09.340Z,17.3
2022-07-25T23:27:09.251Z,17.3
2022-07-25T23:30:09.282Z,17.2
2022-07-25T23:33:09.227Z,17.1
2022-07-25T23:36:09.190Z,17
2022-07-25T23:39:16.976Z,16.9
2022-07-25T23:42:09.202Z,16.9
2022-07-25T23:45:12.550Z,16.8
2022-07-25T23:48:09.188Z,16.8
2022-07-25T23:51:11.396Z,16.8
2022-07-25T23:54:09.228Z,16.7
2022-07-25T23:57:09.235Z,16.7
